createdAt,value
2017-08-05T00:01:44.035Z,2.30
2017-08-05T00:04:12.184Z,2.63
2017-08-05T00:06:40.291Z,2.03
2017-08-05T00:09:08.390Z,2.13
2017-08-05T00:11:36.524Z,2.53
2017-08-05T00:14:04.625Z,2.30
2017-08-05T00:19:29.631Z,2.30
2017-08-05T00:21:57.713Z,1.90
2017-08-05T00:24:25.966Z,2.70
2017-08-05T00:26:54.061Z,2.20
2017-08-05T00:29:22.170Z,2.80
2017-08-05T00:31:50.308Z,2.83
2017-08-05T00:34:22.472Z,2.37
2017-08-05T00:36:50.581Z,2.80
2017-08-05T00:39:18.690Z,2.47
2017-08-05T00:41:46.834Z,2.30
2017-08-05T00:44:14.938Z,2.20
2017-08-05T00:46:43.035Z,2.30
2017-08-05T00:49:11.143Z,2.33
2017-08-05T00:51:39.255Z,2.90
2017-08-05T00:54:07.361Z,2.90
2017-08-05T00:56:35.482Z,2.50
2017-08-05T00:59:03.584Z,2.50
2017-08-05T01:01:31.687Z,2.40
2017-08-05T01:03:59.817Z,2.47
2017-08-05T01:06:27.949Z,2.53
2017-08-05T01:08:57.017Z,2.47
2017-08-05T01:11:25.135Z,2.50
2017-08-05T01:13:53.230Z,2.73
2017-08-05T01:16:22.315Z,2.23
2017-08-05T01:18:50.410Z,3.00
2017-08-05T01:21:19.013Z,2.63
2017-08-05T01:23:47.146Z,2.70
2017-08-05T01:26:15.237Z,2.00
2017-08-05T01:28:43.351Z,2.50
2017-08-05T01:31:16.905Z,3.10
2017-08-05T01:33:45.017Z,2.80
2017-08-05T01:36:13.098Z,3.00
2017-08-05T01:38:41.221Z,2.93
2017-08-05T01:41:09.382Z,3.00
2017-08-05T01:43:37.487Z,2.73
2017-08-05T01:46:05.598Z,2.47
2017-08-05T01:48:33.704Z,2.43
2017-08-05T01:51:01.784Z,2.80
2017-08-05T01:53:29.903Z,2.47
2017-08-05T01:55:58.999Z,3.10
2017-08-05T01:58:27.114Z,3.27
2017-08-05T02:00:55.230Z,3.20
2017-08-05T02:03:23.401Z,2.77
2017-08-05T02:05:51.507Z,3.27
2017-08-05T02:08:19.608Z,2.90
2017-08-05T02:11:07.831Z,2.90
2017-08-05T02:13:35.920Z,3.37
2017-08-05T02:16:04.067Z,2.80
2017-08-05T02:18:32.158Z,3.00
2017-08-05T02:21:00.258Z,2.60
2017-08-05T02:23:28.430Z,2.83
2017-08-05T02:26:00.462Z,3.10
2017-08-05T02:28:28.705Z,3.37
2017-08-05T02:30:56.835Z,2.77
2017-08-05T02:33:25.150Z,3.53
2017-08-05T02:35:54.081Z,3.10
2017-08-05T02:38:22.770Z,2.97
2017-08-05T02:40:50.907Z,3.10
2017-08-05T02:43:19.518Z,2.63
2017-08-05T02:45:47.678Z,2.97
2017-08-05T02:48:15.849Z,3.00
2017-08-05T02:50:43.997Z,3.60
2017-08-05T02:53:12.087Z,3.20
2017-08-05T02:55:40.264Z,2.70
2017-08-05T02:58:08.363Z,3.67
2017-08-05T03:00:36.475Z,3.03
2017-08-05T03:03:04.683Z,3.33
2017-08-05T03:05:32.779Z,2.93
2017-08-05T03:08:00.906Z,3.03
2017-08-05T03:10:29.006Z,3.37
2017-08-05T03:12:57.112Z,3.50
2017-08-05T03:15:25.281Z,2.83
2017-08-05T03:17:53.411Z,4.07
2017-08-05T03:20:21.519Z,3.00
2017-08-05T03:22:49.664Z,2.80
2017-08-05T03:25:17.742Z,4.40
2017-08-05T03:27:45.846Z,3.67
2017-08-05T03:30:14.026Z,3.10
2017-08-05T03:32:42.131Z,3.80
2017-08-05T03:35:10.308Z,3.97
2017-08-05T03:37:38.397Z,3.43
2017-08-05T03:40:06.581Z,3.60
2017-08-05T03:42:39.229Z,3.50
2017-08-05T03:45:08.136Z,3.93
2017-08-05T03:47:37.530Z,3.43
2017-08-05T03:50:11.555Z,4.03
2017-08-05T03:52:39.822Z,3.80
2017-08-05T03:55:07.919Z,3.33
2017-08-05T03:57:36.034Z,4.03
2017-08-05T04:00:04.143Z,3.97
2017-08-05T04:02:32.238Z,4.30
2017-08-05T04:05:00.438Z,4.20
2017-08-05T04:07:28.559Z,3.80
2017-08-05T04:09:56.668Z,4.73
2017-08-05T04:12:24.775Z,4.10
2017-08-05T04:14:52.895Z,3.73
2017-08-05T04:17:21.002Z,4.03
2017-08-05T04:19:50.170Z,4.27
2017-08-05T04:22:18.285Z,3.73
2017-08-05T04:24:46.362Z,4.20
2017-08-05T04:27:14.481Z,3.97
2017-08-05T04:29:47.455Z,3.40
2017-08-05T04:32:15.589Z,3.30
2017-08-05T04:34:43.700Z,3.77
2017-08-05T04:37:14.909Z,3.70
2017-08-05T04:39:43.026Z,3.00
2017-08-05T04:42:11.125Z,3.57
2017-08-05T04:44:39.236Z,3.27
2017-08-05T04:47:07.412Z,3.33
2017-08-05T04:49:35.530Z,3.57
2017-08-05T04:52:03.644Z,3.97
2017-08-05T04:54:31.818Z,3.37
2017-08-05T04:56:59.966Z,3.70
2017-08-05T04:59:28.088Z,3.50
2017-08-05T05:01:56.206Z,3.37
2017-08-05T05:04:26.259Z,3.40
2017-08-05T05:06:54.380Z,3.27
2017-08-05T05:09:22.490Z,3.00
2017-08-05T05:11:51.547Z,3.60
2017-08-05T05:14:19.668Z,3.53
2017-08-05T05:16:47.791Z,3.30
2017-08-05T05:19:15.934Z,3.67
2017-08-05T05:21:44.114Z,3.07
2017-08-05T05:24:12.210Z,3.20
2017-08-05T05:26:44.383Z,3.27
2017-08-05T05:29:12.494Z,4.13
2017-08-05T05:31:40.618Z,3.40
2017-08-05T05:34:09.081Z,3.00
2017-08-05T05:36:37.172Z,3.40
2017-08-05T05:39:05.271Z,3.20
2017-08-05T05:41:33.398Z,3.57
2017-08-05T05:44:01.516Z,3.23
2017-08-05T05:46:29.697Z,3.10
2017-08-05T05:48:57.795Z,4.30
2017-08-05T05:51:25.921Z,2.80
2017-08-05T05:53:54.124Z,3.33
2017-08-05T05:56:34.805Z,2.73
2017-08-05T05:59:02.944Z,3.30
2017-08-05T06:01:44.719Z,3.33
2017-08-05T06:04:12.826Z,3.80
2017-08-05T06:06:42.937Z,3.60
2017-08-05T06:09:11.106Z,3.80
2017-08-05T06:11:39.320Z,3.67
2017-08-05T06:14:07.445Z,3.50
2017-08-05T06:16:35.624Z,4.00
2017-08-05T06:19:03.987Z,3.63
2017-08-05T06:21:34.138Z,3.77
2017-08-05T06:24:02.326Z,3.50
2017-08-05T06:26:34.065Z,4.00
2017-08-05T06:29:02.191Z,3.07
2017-08-05T06:31:30.379Z,3.10
2017-08-05T06:34:01.784Z,3.80
2017-08-05T06:36:42.024Z,3.80
2017-08-05T06:39:10.145Z,8.10
2017-08-05T06:41:38.228Z,3.50
2017-08-05T06:44:06.340Z,3.50
2017-08-05T06:46:34.445Z,3.53
2017-08-05T06:49:02.589Z,3.30
2017-08-05T06:51:33.806Z,4.23
2017-08-05T06:54:10.327Z,3.07
2017-08-05T06:56:38.421Z,2.70
2017-08-05T06:59:20.121Z,3.10
2017-08-05T07:01:48.199Z,3.40
2017-08-05T07:04:16.329Z,4.13
2017-08-05T07:06:44.477Z,3.43
2017-08-05T07:12:06.999Z,3.30
2017-08-05T07:14:35.108Z,3.70
2017-08-05T07:17:03.230Z,3.67
2017-08-05T07:19:31.334Z,3.93
2017-08-05T07:21:59.453Z,4.03
2017-08-05T07:24:27.533Z,3.47
2017-08-05T07:27:06.828Z,2.90
2017-08-05T07:29:34.972Z,3.93
2017-08-05T07:32:03.794Z,3.40
2017-08-05T07:34:31.965Z,3.60
2017-08-05T07:37:00.098Z,3.17
2017-08-05T07:39:28.370Z,3.50
2017-08-05T07:42:00.494Z,3.63
2017-08-05T07:44:31.102Z,3.10
2017-08-05T07:47:00.333Z,3.73
2017-08-05T07:49:28.417Z,2.90
2017-08-05T07:51:58.449Z,3.37
2017-08-05T07:54:26.540Z,3.50
2017-08-05T07:56:54.655Z,3.37
2017-08-05T07:59:22.738Z,3.30
2017-08-05T08:01:50.883Z,3.73
2017-08-05T08:04:20.933Z,3.80
2017-08-05T08:06:49.040Z,2.70
2017-08-05T08:09:17.151Z,2.53
2017-08-05T08:11:45.251Z,3.07
2017-08-05T08:14:13.336Z,3.67
2017-08-05T08:16:41.435Z,3.70
2017-08-05T08:19:09.592Z,3.13
2017-08-05T08:21:37.702Z,3.00
2017-08-05T08:24:05.829Z,2.77
2017-08-05T08:26:33.960Z,2.70
2017-08-05T08:29:02.056Z,2.30
2017-08-05T08:31:30.193Z,2.60
2017-08-05T08:33:59.233Z,4.07
2017-08-05T08:36:27.339Z,2.47
2017-08-05T08:38:58.487Z,3.20
2017-08-05T08:41:26.663Z,2.97
2017-08-05T08:43:54.772Z,3.47
2017-08-05T08:46:22.869Z,2.40
2017-08-05T08:48:51.110Z,2.83
2017-08-05T08:51:19.190Z,2.73
2017-08-05T08:53:47.473Z,2.77
2017-08-05T08:56:15.569Z,3.73
2017-08-05T08:58:43.669Z,2.53
2017-08-05T09:01:11.775Z,2.50
2017-08-05T09:03:39.867Z,3.20
2017-08-05T09:06:08.977Z,2.70
2017-08-05T09:08:37.078Z,3.17
2017-08-05T09:11:05.185Z,3.10
2017-08-05T09:13:33.267Z,2.63
2017-08-05T09:16:01.370Z,3.00
2017-08-05T09:18:29.478Z,2.80
2017-08-05T09:21:00.393Z,2.93
2017-08-05T09:23:30.149Z,2.83
2017-08-05T09:25:58.280Z,2.80
2017-08-05T09:28:26.370Z,3.07
2017-08-05T09:30:54.453Z,2.57
2017-08-05T09:33:23.116Z,2.13
2017-08-05T09:35:51.208Z,3.03
2017-08-05T09:38:19.299Z,3.00
2017-08-05T09:40:47.407Z,3.03
2017-08-05T09:43:15.510Z,2.37
2017-08-05T09:45:43.625Z,2.87
2017-08-05T09:48:11.723Z,2.97
2017-08-05T09:50:39.826Z,3.13
2017-08-05T09:53:07.930Z,2.30
2017-08-05T09:55:36.030Z,3.10
2017-08-05T09:58:04.194Z,3.10
2017-08-05T10:00:32.305Z,2.60
2017-08-05T10:03:00.400Z,2.67
2017-08-05T10:05:28.502Z,2.70
2017-08-05T10:07:57.411Z,2.50
2017-08-05T10:10:25.706Z,2.90
2017-08-05T10:12:54.211Z,3.40
2017-08-05T10:15:22.309Z,2.70
2017-08-05T10:17:50.427Z,3.30
2017-08-05T10:20:18.513Z,3.30
2017-08-05T10:22:46.639Z,2.53
2017-08-05T10:25:14.758Z,3.07
2017-08-05T10:27:42.860Z,3.10
2017-08-05T10:30:10.964Z,2.40
2017-08-05T10:32:39.065Z,3.37
2017-08-05T10:35:08.069Z,2.47
2017-08-05T10:37:36.205Z,2.80
2017-08-05T10:40:04.311Z,3.00
2017-08-05T10:42:32.425Z,2.90
2017-08-05T10:45:00.510Z,3.00
2017-08-05T10:47:28.618Z,2.63
2017-08-05T10:49:56.691Z,2.97
2017-08-05T10:52:24.813Z,2.50
2017-08-05T10:54:52.894Z,3.07
2017-08-05T10:57:21.005Z,2.73
2017-08-05T10:59:49.151Z,2.97
2017-08-05T11:02:17.285Z,2.53
2017-08-05T11:04:45.387Z,2.73
2017-08-05T11:07:13.491Z,3.07
2017-08-05T11:09:41.575Z,2.40
2017-08-05T11:12:09.705Z,2.73
2017-08-05T11:14:37.807Z,2.50
2017-08-05T11:17:05.925Z,2.60
2017-08-05T11:19:34.009Z,2.23
2017-08-05T11:22:02.105Z,2.00
2017-08-05T11:24:30.210Z,2.20
2017-08-05T11:26:58.310Z,2.70
2017-08-05T11:29:26.395Z,2.10
2017-08-05T11:31:54.514Z,2.67
2017-08-05T11:34:22.605Z,2.67
2017-08-05T11:36:50.703Z,2.67
2017-08-05T11:39:18.827Z,2.20
2017-08-05T11:41:46.978Z,2.90
2017-08-05T11:44:15.081Z,2.27
2017-08-05T11:46:43.178Z,2.23
2017-08-05T11:49:11.274Z,2.20
2017-08-05T11:51:39.392Z,2.77
2017-08-05T11:54:07.475Z,2.80
2017-08-05T11:56:35.567Z,2.60
2017-08-05T11:59:03.659Z,2.87
2017-08-05T12:01:31.762Z,2.87
2017-08-05T12:03:59.895Z,3.20
2017-08-05T12:06:27.986Z,2.80
2017-08-05T12:08:56.091Z,2.80
2017-08-05T12:11:24.186Z,3.00
2017-08-05T12:13:52.289Z,3.00
2017-08-05T12:16:20.396Z,2.40
2017-08-05T12:18:48.486Z,2.77
2017-08-05T12:21:16.645Z,3.77
2017-08-05T12:23:44.761Z,2.80
2017-08-05T12:26:12.842Z,2.70
2017-08-05T12:28:40.952Z,2.83
2017-08-05T12:31:09.046Z,2.20
2017-08-05T12:33:37.142Z,2.57
2017-08-05T12:36:05.238Z,2.27
2017-08-05T12:38:33.348Z,2.17
2017-08-05T12:41:01.469Z,2.20
2017-08-05T12:43:29.557Z,2.07
2017-08-05T12:45:57.637Z,2.33
2017-08-05T12:48:25.758Z,2.67
2017-08-05T12:50:53.839Z,2.37
2017-08-05T12:53:21.932Z,2.03
2017-08-05T12:55:50.027Z,2.63
2017-08-05T12:58:18.125Z,2.33
2017-08-05T13:00:46.217Z,1.80
2017-08-05T13:03:14.320Z,1.93
2017-08-05T13:05:50.179Z,2.10
2017-08-05T13:08:18.264Z,2.10
2017-08-05T13:10:46.355Z,1.60
2017-08-05T13:13:14.444Z,1.90
2017-08-05T13:15:42.549Z,1.87
2017-08-05T13:18:10.639Z,2.20
2017-08-05T13:20:38.744Z,2.40
2017-08-05T13:23:07.129Z,2.40
2017-08-05T13:25:35.261Z,2.70
2017-08-05T13:28:03.341Z,1.90
2017-08-05T13:30:31.450Z,2.70
2017-08-05T13:32:59.547Z,2.60
2017-08-05T13:35:27.641Z,1.80
2017-08-05T13:37:55.742Z,2.63
2017-08-05T13:40:23.828Z,2.17
2017-08-05T13:42:51.920Z,2.10
2017-08-05T13:45:20.022Z,2.13
2017-08-05T13:47:48.128Z,2.33
2017-08-05T13:50:16.957Z,2.03
2017-08-05T13:52:45.053Z,2.23
2017-08-05T13:55:13.142Z,2.77
2017-08-05T13:57:41.221Z,2.17
2017-08-05T14:00:09.323Z,2.20
2017-08-05T14:02:37.435Z,2.10
2017-08-05T14:05:06.239Z,2.47
2017-08-05T14:07:34.329Z,2.23
2017-08-05T14:10:02.600Z,1.90
2017-08-05T14:12:30.693Z,2.50
2017-08-05T14:14:59.103Z,2.43
2017-08-05T14:17:27.223Z,2.03
2017-08-05T14:19:55.324Z,2.40
2017-08-05T14:22:23.446Z,2.33
2017-08-05T14:24:51.867Z,2.17
2017-08-05T14:27:20.039Z,2.20
2017-08-05T14:29:48.177Z,2.10
2017-08-05T14:32:16.499Z,1.77
2017-08-05T14:34:44.599Z,2.20
2017-08-05T14:37:18.339Z,2.40
2017-08-05T14:39:46.483Z,2.10
2017-08-05T14:42:14.606Z,1.90
2017-08-05T14:44:43.462Z,2.20
2017-08-05T14:47:11.558Z,2.07
2017-08-05T14:49:39.653Z,2.60
2017-08-05T14:52:07.770Z,2.10
2017-08-05T14:54:35.869Z,1.90
2017-08-05T14:57:03.954Z,2.10
2017-08-05T14:59:32.683Z,2.43
2017-08-05T15:02:00.776Z,2.30
2017-08-05T15:04:28.862Z,2.27
2017-08-05T15:06:56.953Z,2.30
2017-08-05T15:09:25.053Z,1.70
2017-08-05T15:11:53.138Z,2.53
2017-08-05T15:14:21.224Z,2.10
2017-08-05T15:16:49.320Z,2.40
2017-08-05T15:19:17.441Z,2.07
2017-08-05T15:21:45.517Z,2.30
2017-08-05T15:24:13.617Z,3.10
2017-08-05T15:26:42.181Z,1.73
2017-08-05T15:29:10.315Z,2.53
2017-08-05T15:31:38.413Z,2.10
2017-08-05T15:34:06.473Z,1.90
2017-08-05T15:36:34.577Z,2.60
2017-08-05T15:39:02.662Z,2.40
2017-08-05T15:41:30.757Z,2.60
2017-08-05T15:43:58.854Z,2.63
2017-08-05T15:46:26.965Z,2.10
2017-08-05T15:48:55.458Z,2.10
2017-08-05T15:51:23.561Z,2.43
2017-08-05T15:53:52.059Z,2.53
2017-08-05T15:56:20.193Z,2.67
2017-08-05T15:58:49.288Z,2.50
2017-08-05T16:01:17.385Z,2.00
2017-08-05T16:03:45.466Z,2.03
2017-08-05T16:06:13.575Z,2.50
2017-08-05T16:08:41.677Z,2.60
2017-08-05T16:11:09.781Z,1.97
2017-08-05T16:13:37.871Z,2.20
2017-08-05T16:16:05.965Z,2.33
2017-08-05T16:18:34.067Z,2.17
2017-08-05T16:21:02.147Z,2.27
2017-08-05T16:23:30.286Z,2.50
2017-08-05T16:25:58.372Z,2.30
2017-08-05T16:28:26.523Z,2.23
2017-08-05T16:30:54.574Z,2.43
2017-08-05T16:33:22.700Z,2.13
2017-08-05T16:35:50.910Z,2.43
2017-08-05T16:38:18.997Z,2.23
2017-08-05T16:40:47.097Z,2.43
2017-08-05T16:43:15.181Z,2.87
2017-08-05T16:45:43.277Z,2.93
2017-08-05T16:48:11.385Z,2.90
2017-08-05T16:50:39.482Z,3.00
2017-08-05T16:53:07.564Z,2.77
2017-08-05T16:55:35.677Z,2.70
2017-08-05T16:58:04.584Z,2.73
2017-08-05T17:00:32.723Z,2.10
2017-08-05T17:03:00.829Z,2.90
2017-08-05T17:05:28.930Z,2.47
2017-08-05T17:07:57.729Z,2.33
2017-08-05T17:10:25.827Z,3.80
2017-08-05T17:12:54.340Z,2.43
2017-08-05T17:15:22.417Z,2.30
2017-08-05T17:17:50.510Z,2.60
2017-08-05T17:20:18.625Z,2.27
2017-08-05T17:22:46.773Z,2.40
2017-08-05T17:25:15.799Z,1.80
2017-08-05T17:27:43.902Z,2.30
2017-08-05T17:30:11.991Z,2.23
2017-08-05T17:32:40.086Z,2.57
2017-08-05T17:35:08.160Z,2.80
2017-08-05T17:37:36.272Z,2.67
2017-08-05T17:40:04.390Z,2.00
2017-08-05T17:42:32.473Z,1.43
2017-08-05T17:45:00.594Z,2.23
2017-08-05T17:47:28.711Z,2.30
2017-08-05T17:49:56.802Z,1.90
2017-08-05T17:52:24.903Z,1.90
2017-08-05T17:54:52.994Z,2.03
2017-08-05T17:57:21.089Z,1.50
2017-08-05T17:59:49.179Z,1.70
2017-08-05T18:02:17.262Z,2.07
2017-08-05T18:04:45.877Z,2.07
2017-08-05T18:07:14.782Z,2.10
2017-08-05T18:09:42.913Z,2.03
2017-08-05T18:12:11.017Z,2.03
2017-08-05T18:14:39.808Z,1.47
2017-08-05T18:17:07.913Z,2.30
2017-08-05T18:19:36.042Z,1.70
2017-08-05T18:22:04.136Z,1.63
2017-08-05T18:24:32.279Z,1.80
2017-08-05T18:27:00.678Z,2.40
2017-08-05T18:29:28.766Z,2.40
2017-08-05T18:31:57.676Z,1.83
2017-08-05T18:34:25.770Z,2.00
2017-08-05T18:36:53.867Z,2.00
2017-08-05T18:39:21.965Z,1.70
2017-08-05T18:41:51.082Z,2.10
2017-08-05T18:44:19.169Z,2.20
2017-08-05T18:46:47.274Z,2.10
2017-08-05T18:49:15.367Z,1.60
2017-08-05T18:51:43.468Z,1.77
2017-08-05T18:54:12.089Z,1.70
2017-08-05T18:56:40.174Z,1.80
2017-08-05T18:59:08.278Z,2.17
2017-08-05T19:01:36.382Z,2.13
2017-08-05T19:04:04.463Z,2.10
2017-08-05T19:06:32.565Z,2.23
2017-08-05T19:09:00.656Z,2.13
2017-08-05T19:11:28.755Z,1.90
2017-08-05T19:13:56.845Z,2.57
2017-08-05T19:16:29.547Z,2.17
2017-08-05T19:22:01.130Z,2.53
2017-08-05T19:24:29.225Z,2.27
2017-08-05T19:26:57.309Z,2.37
2017-08-05T19:29:25.407Z,1.80
2017-08-05T19:31:53.518Z,1.87
2017-08-05T19:34:21.597Z,1.90
2017-08-05T19:36:49.685Z,1.70
2017-08-05T19:39:17.837Z,2.07
2017-08-05T19:41:45.931Z,3.10
2017-08-05T19:44:14.057Z,2.23
2017-08-05T19:46:42.787Z,3.20
2017-08-05T19:49:10.880Z,2.30
2017-08-05T19:51:39.019Z,2.47
2017-08-05T19:54:07.367Z,2.47
2017-08-05T19:56:35.490Z,3.00
2017-08-05T19:59:03.623Z,3.00
2017-08-05T20:01:32.070Z,2.77
2017-08-05T20:07:05.004Z,2.53
2017-08-05T20:09:35.142Z,2.53
2017-08-05T20:12:03.829Z,2.50
2017-08-05T20:14:46.980Z,2.50
2017-08-05T20:17:27.406Z,2.00
2017-08-05T20:19:55.675Z,2.80
2017-08-05T20:22:23.879Z,2.30
2017-08-05T20:24:51.994Z,2.97
2017-08-05T20:27:20.252Z,2.63
2017-08-05T20:29:48.413Z,2.67
2017-08-05T20:32:16.527Z,2.67
2017-08-05T20:34:44.694Z,3.43
2017-08-05T20:37:12.863Z,2.70
2017-08-05T20:39:41.067Z,2.50
2017-08-05T20:42:10.656Z,1.90
2017-08-05T20:44:41.238Z,2.63
2017-08-05T20:47:09.378Z,2.13
2017-08-05T20:49:37.642Z,2.10
2017-08-05T20:52:05.749Z,2.20
2017-08-05T20:54:33.876Z,2.33
2017-08-05T20:57:06.486Z,2.10
2017-08-05T20:59:39.377Z,2.97
2017-08-05T21:05:02.499Z,2.60
2017-08-05T21:07:31.401Z,2.10
2017-08-05T21:10:00.298Z,1.80
2017-08-05T21:12:34.248Z,1.70
2017-08-05T21:15:02.484Z,1.60
2017-08-05T21:17:30.654Z,1.50
2017-08-05T21:19:58.754Z,2.17
2017-08-05T21:22:26.849Z,1.80
2017-08-05T21:24:54.967Z,1.60
2017-08-05T21:27:23.102Z,1.70
2017-08-05T21:29:52.188Z,2.30
2017-08-05T21:32:25.973Z,1.60
2017-08-05T21:34:54.069Z,2.00
2017-08-05T21:37:22.193Z,1.50
2017-08-05T21:39:52.206Z,1.50
2017-08-05T21:42:20.408Z,1.57
2017-08-05T21:45:01.204Z,2.17
2017-08-05T21:47:30.138Z,2.10
2017-08-05T21:49:59.679Z,1.63
2017-08-05T21:52:29.663Z,2.13
2017-08-05T21:54:58.466Z,1.70
2017-08-05T21:57:26.602Z,2.90
2017-08-05T21:59:54.795Z,1.67
2017-08-05T22:02:22.966Z,1.70
2017-08-05T22:04:51.131Z,1.87
2017-08-05T22:07:19.257Z,2.00
2017-08-05T22:09:47.387Z,1.97
2017-08-05T22:12:15.590Z,1.60
2017-08-05T22:14:43.751Z,2.50
2017-08-05T22:17:12.011Z,2.03
2017-08-05T22:19:40.190Z,1.73
2017-08-05T22:22:30.311Z,1.70
2017-08-05T22:24:59.788Z,1.70
2017-08-05T22:27:32.605Z,1.77
2017-08-05T22:32:44.902Z,2.03
2017-08-05T22:35:13.349Z,2.50
2017-08-05T22:37:44.180Z,1.90
2017-08-05T22:40:12.459Z,2.00
2017-08-05T22:42:40.571Z,1.93
2017-08-05T22:45:08.783Z,1.70
2017-08-05T22:47:36.903Z,2.17
2017-08-05T22:50:06.113Z,2.37
2017-08-05T22:52:34.463Z,2.63
2017-08-05T22:55:03.522Z,2.00
2017-08-05T22:57:31.665Z,1.93
2017-08-05T22:59:59.791Z,2.00
2017-08-05T23:02:28.702Z,2.20
2017-08-05T23:04:56.832Z,2.47
2017-08-05T23:07:24.951Z,2.00
2017-08-05T23:09:53.092Z,3.00
2017-08-05T23:12:21.190Z,2.10
2017-08-05T23:14:49.335Z,2.53
2017-08-05T23:17:17.449Z,2.07
2017-08-05T23:19:45.627Z,2.20
2017-08-05T23:22:14.697Z,2.20
2017-08-05T23:24:43.782Z,1.90
2017-08-05T23:27:12.983Z,2.87
2017-08-05T23:29:41.109Z,2.40
2017-08-05T23:32:09.240Z,2.30
2017-08-05T23:34:38.327Z,1.97
2017-08-05T23:37:06.971Z,2.87
2017-08-05T23:39:35.183Z,2.40
2017-08-05T23:42:03.310Z,2.23
2017-08-05T23:44:31.422Z,2.03
2017-08-05T23:47:01.502Z,2.43
2017-08-05T23:49:29.633Z,2.53
2017-08-05T23:51:57.746Z,1.90
2017-08-05T23:54:25.875Z,2.27
2017-08-05T23:56:59.874Z,2.80
2017-08-05T23:59:27.991Z,3.20
